< Typhoon 196802 1968 Season Typhoon 196804 >
Typhoon 196803 (LUCY)
General InformationTrack Information on Google Maps || Disaster Info.ResourceGoogle EarthGE AnimationAtom FeedGeoJSON
Detalied Best Track (Time Zone = UTC)
Year Month Day Hour Lat. Long. Pressure (hPa) Wind (kt) Class Image Chart
1968 6 26 00 12.9 156.1 1010 0 2 -- Chart
1968 6 26 06 13.2 155.0 1008 0 2 -- Chart
1968 6 26 12 13.6 153.8 1010 0 2 -- Chart
1968 6 26 18 14.0 152.6 1010 0 2 -- Chart
1968 6 27 00 14.2 151.3 1010 0 2 -- Chart
1968 6 27 06 14.6 149.7 1008 0 2 -- Chart
1968 6 27 12 15.0 148.0 1006 0 2 -- Chart
1968 6 27 18 15.2 146.1 1006 0 2 -- Chart
1968 6 28 00 15.6 144.2 1000 0 9 -- Chart
1968 6 28 06 15.7 142.7 995 0 9 -- Chart
1968 6 28 12 16.3 141.1 995 0 9 -- Chart
1968 6 28 18 16.8 139.1 990 0 9 -- Chart
1968 6 29 00 17.0 137.0 985 0 9 -- Chart
1968 6 29 06 17.9 135.3 970 0 9 -- Chart
1968 6 29 12 18.4 133.9 955 0 9 -- Chart
1968 6 29 18 18.9 132.5 940 0 9 -- Chart
1968 6 30 00 19.4 131.3 935 0 9 -- Chart
1968 6 30 06 19.9 130.3 955 0 9 -- Chart
1968 6 30 12 20.5 129.6 970 0 9 -- Chart
1968 6 30 18 21.0 129.2 970 0 9 -- Chart
1968 7 1 00 21.7 128.9 975 0 9 -- Chart
1968 7 1 06 22.6 128.8 980 0 9 -- Chart
1968 7 1 12 23.5 128.8 985 0 9 -- Chart
1968 7 1 18 24.9 128.9 992 0 9 -- Chart
1968 7 2 00 26.5 129.5 996 0 9 -- Chart
1968 7 2 06 28.2 131.4 996 0 9 -- Chart
1968 7 2 12 30.0 134.9 994 0 9 -- Chart
1968 7 2 18 33.0 139.5 992 0 9 -- Chart
1968 7 3 00 35.0 144.5 990 0 9 -- Chart
Japan Meteorological Agency Best Track Data | Correction Date : 1990-10-17
< Typhoon 196802 1968 Season Typhoon 196804 >

Help